sensor_id;sensor_type;location;lat;lon;timestamp;P1;durP1;ratioP1;P2;durP2;ratioP2
29280;SDS011;25048;49.590;11.026;2023-04-15T00:00:16;662.83;;;191.67;;
29280;SDS011;25048;49.590;11.026;2023-04-15T00:02:43;668.33;;;197.10;;
29280;SDS011;25048;49.590;11.026;2023-04-15T00:05:11;670.23;;;198.23;;
29280;SDS011;25048;49.590;11.026;2023-04-15T00:07:38;675.33;;;208.23;;
29280;SDS011;25048;49.590;11.026;2023-04-15T00:10:06;669.63;;;206.63;;
29280;SDS011;25048;49.590;11.026;2023-04-15T00:12:34;677.00;;;215.73;;
29280;SDS011;25048;49.590;11.026;2023-04-15T00:15:02;674.40;;;209.63;;
29280;SDS011;25048;49.590;11.026;2023-04-15T00:17:30;682.97;;;224.57;;
29280;SDS011;25048;49.590;11.026;2023-04-15T00:19:57;680.23;;;219.30;;
29280;SDS011;25048;49.590;11.026;2023-04-15T00:22:28;683.20;;;220.83;;
29280;SDS011;25048;49.590;11.026;2023-04-15T00:24:55;686.70;;;227.10;;
29280;SDS011;25048;49.590;11.026;2023-04-15T00:27:23;684.97;;;229.40;;
29280;SDS011;25048;49.590;11.026;2023-04-15T00:29:50;683.03;;;228.10;;
29280;SDS011;25048;49.590;11.026;2023-04-15T00:32:18;669.30;;;211.07;;
29280;SDS011;25048;49.590;11.026;2023-04-15T00:34:46;674.23;;;224.00;;
29280;SDS011;25048;49.590;11.026;2023-04-15T00:37:14;680.87;;;238.03;;
29280;SDS011;25048;49.590;11.026;2023-04-15T00:39:42;684.90;;;235.30;;
29280;SDS011;25048;49.590;11.026;2023-04-15T00:42:10;683.13;;;236.57;;
29280;SDS011;25048;49.590;11.026;2023-04-15T00:44:39;681.93;;;230.87;;
29280;SDS011;25048;49.590;11.026;2023-04-15T00:47:07;684.63;;;243.23;;
29280;SDS011;25048;49.590;11.026;2023-04-15T00:49:35;683.20;;;251.13;;
29280;SDS011;25048;49.590;11.026;2023-04-15T00:52:03;681.50;;;237.13;;
29280;SDS011;25048;49.590;11.026;2023-04-15T00:54:30;685.20;;;247.30;;
29280;SDS011;25048;49.590;11.026;2023-04-15T00:56:58;686.13;;;245.57;;
29280;SDS011;25048;49.590;11.026;2023-04-15T00:59:25;682.93;;;245.17;;
29280;SDS011;25048;49.590;11.026;2023-04-15T01:01:53;681.27;;;250.03;;
29280;SDS011;25048;49.590;11.026;2023-04-15T01:04:21;680.67;;;243.93;;
29280;SDS011;25048;49.590;11.026;2023-04-15T01:06:48;683.37;;;255.77;;
29280;SDS011;25048;49.590;11.026;2023-04-15T01:09:16;679.20;;;247.97;;
29280;SDS011;25048;49.590;11.026;2023-04-15T01:11:44;682.03;;;234.93;;
29280;SDS011;25048;49.590;11.026;2023-04-15T01:14:11;687.20;;;245.07;;
29280;SDS011;25048;49.590;11.026;2023-04-15T01:16:39;688.97;;;257.27;;
29280;SDS011;25048;49.590;11.026;2023-04-15T01:19:07;687.77;;;247.77;;
29280;SDS011;25048;49.590;11.026;2023-04-15T01:21:36;683.17;;;247.77;;
29280;SDS011;25048;49.590;11.026;2023-04-15T01:24:07;690.23;;;265.87;;
29280;SDS011;25048;49.590;11.026;2023-04-15T01:26:37;690.93;;;266.40;;
29280;SDS011;25048;49.590;11.026;2023-04-15T01:29:05;685.43;;;245.07;;
29280;SDS011;25048;49.590;11.026;2023-04-15T01:31:33;687.57;;;244.97;;
29280;SDS011;25048;49.590;11.026;2023-04-15T01:34:01;689.73;;;259.80;;
29280;SDS011;25048;49.590;11.026;2023-04-15T01:36:28;690.67;;;257.47;;
29280;SDS011;25048;49.590;11.026;2023-04-15T01:38:56;692.53;;;260.37;;
29280;SDS011;25048;49.590;11.026;2023-04-15T01:41:27;693.13;;;272.23;;
29280;SDS011;25048;49.590;11.026;2023-04-15T01:43:55;690.67;;;253.53;;
29280;SDS011;25048;49.590;11.026;2023-04-15T01:46:22;695.00;;;266.20;;
29280;SDS011;25048;49.590;11.026;2023-04-15T01:48:50;693.57;;;270.40;;
29280;SDS011;25048;49.590;11.026;2023-04-15T01:51:17;697.07;;;265.33;;
29280;SDS011;25048;49.590;11.026;2023-04-15T01:53:45;690.03;;;259.40;;
29280;SDS011;25048;49.590;11.026;2023-04-15T01:56:12;686.67;;;258.80;;
29280;SDS011;25048;49.590;11.026;2023-04-15T01:58:40;682.67;;;248.53;;
29280;SDS011;25048;49.590;11.026;2023-04-15T02:01:08;695.30;;;263.80;;
29280;SDS011;25048;49.590;11.026;2023-04-15T02:03:36;693.37;;;264.17;;
29280;SDS011;25048;49.590;11.026;2023-04-15T02:06:04;688.47;;;256.77;;
29280;SDS011;25048;49.590;11.026;2023-04-15T02:08:31;695.63;;;264.37;;
29280;SDS011;25048;49.590;11.026;2023-04-15T02:10:59;694.13;;;264.77;;
29280;SDS011;25048;49.590;11.026;2023-04-15T02:13:27;691.60;;;258.93;;
29280;SDS011;25048;49.590;11.026;2023-04-15T02:15:55;698.03;;;274.40;;
29280;SDS011;25048;49.590;11.026;2023-04-15T02:18:24;679.33;;;248.60;;
29280;SDS011;25048;49.590;11.026;2023-04-15T02:20:51;697.43;;;274.63;;
29280;SDS011;25048;49.590;11.026;2023-04-15T02:23:20;694.90;;;270.53;;
29280;SDS011;25048;49.590;11.026;2023-04-15T02:25:47;687.57;;;257.50;;
29280;SDS011;25048;49.590;11.026;2023-04-15T02:28:15;700.43;;;274.63;;
29280;SDS011;25048;49.590;11.026;2023-04-15T02:30:45;702.30;;;280.63;;
29280;SDS011;25048;49.590;11.026;2023-04-15T02:33:13;699.33;;;272.33;;
29280;SDS011;25048;49.590;11.026;2023-04-15T02:35:41;703.43;;;284.13;;
29280;SDS011;25048;49.590;11.026;2023-04-15T02:38:10;696.50;;;267.67;;
29280;SDS011;25048;49.590;11.026;2023-04-15T02:40:39;685.33;;;248.20;;
29280;SDS011;25048;49.590;11.026;2023-04-15T02:43:06;687.93;;;250.77;;
29280;SDS011;25048;49.590;11.026;2023-04-15T02:45:34;675.47;;;234.60;;
29280;SDS011;25048;49.590;11.026;2023-04-15T02:48:02;686.97;;;252.47;;
29280;SDS011;25048;49.590;11.026;2023-04-15T02:50:31;682.50;;;237.67;;
29280;SDS011;25048;49.590;11.026;2023-04-15T02:52:58;686.60;;;247.70;;
29280;SDS011;25048;49.590;11.026;2023-04-15T02:55:27;681.17;;;242.07;;
29280;SDS011;25048;49.590;11.026;2023-04-15T02:57:55;685.93;;;252.50;;
29280;SDS011;25048;49.590;11.026;2023-04-15T03:00:24;692.77;;;260.20;;
29280;SDS011;25048;49.590;11.026;2023-04-15T03:02:56;690.57;;;256.70;;
29280;SDS011;25048;49.590;11.026;2023-04-15T03:05:26;701.13;;;274.73;;
29280;SDS011;25048;49.590;11.026;2023-04-15T03:07:54;689.53;;;257.83;;
29280;SDS011;25048;49.590;11.026;2023-04-15T03:10:21;685.27;;;247.67;;
29280;SDS011;25048;49.590;11.026;2023-04-15T03:12:49;684.37;;;244.63;;
29280;SDS011;25048;49.590;11.026;2023-04-15T03:15:16;696.57;;;275.77;;
29280;SDS011;25048;49.590;11.026;2023-04-15T03:17:44;693.23;;;270.43;;
29280;SDS011;25048;49.590;11.026;2023-04-15T03:20:12;689.23;;;249.63;;
29280;SDS011;25048;49.590;11.026;2023-04-15T03:22:40;695.17;;;275.23;;
29280;SDS011;25048;49.590;11.026;2023-04-15T03:25:08;695.73;;;268.17;;
29280;SDS011;25048;49.590;11.026;2023-04-15T03:27:36;695.17;;;263.73;;
29280;SDS011;25048;49.590;11.026;2023-04-15T03:30:04;696.50;;;264.90;;
29280;SDS011;25048;49.590;11.026;2023-04-15T03:32:33;700.10;;;273.77;;
29280;SDS011;25048;49.590;11.026;2023-04-15T03:35:01;694.23;;;260.53;;
29280;SDS011;25048;49.590;11.026;2023-04-15T03:37:28;695.93;;;266.50;;
29280;SDS011;25048;49.590;11.026;2023-04-15T03:39:56;702.07;;;277.90;;
29280;SDS011;25048;49.590;11.026;2023-04-15T03:42:23;707.70;;;289.33;;
29280;SDS011;25048;49.590;11.026;2023-04-15T03:44:51;705.30;;;283.13;;
29280;SDS011;25048;49.590;11.026;2023-04-15T03:47:19;698.47;;;270.67;;
29280;SDS011;25048;49.590;11.026;2023-04-15T03:49:46;713.97;;;293.50;;
29280;SDS011;25048;49.590;11.026;2023-04-15T03:52:14;713.23;;;287.53;;
29280;SDS011;25048;49.590;11.026;2023-04-15T03:54:41;709.07;;;286.67;;
29280;SDS011;25048;49.590;11.026;2023-04-15T03:57:09;709.27;;;281.23;;
29280;SDS011;25048;49.590;11.026;2023-04-15T03:59:36;712.27;;;285.43;;
29280;SDS011;25048;49.590;11.026;2023-04-15T04:02:04;702.50;;;279.57;;
29280;SDS011;25048;49.590;11.026;2023-04-15T04:04:31;700.53;;;272.87;;
29280;SDS011;25048;49.590;11.026;2023-04-15T04:06:59;703.03;;;280.77;;
29280;SDS011;25048;49.590;11.026;2023-04-15T04:09:26;707.70;;;285.10;;
29280;SDS011;25048;49.590;11.026;2023-04-15T04:11:54;705.80;;;284.87;;
29280;SDS011;25048;49.590;11.026;2023-04-15T04:14:22;695.00;;;266.43;;
29280;SDS011;25048;49.590;11.026;2023-04-15T04:16:51;697.57;;;276.53;;
29280;SDS011;25048;49.590;11.026;2023-04-15T04:19:19;696.60;;;277.03;;
29280;SDS011;25048;49.590;11.026;2023-04-15T04:21:46;691.17;;;265.83;;
29280;SDS011;25048;49.590;11.026;2023-04-15T04:24:14;701.27;;;283.83;;
29280;SDS011;25048;49.590;11.026;2023-04-15T04:26:41;702.83;;;291.03;;
29280;SDS011;25048;49.590;11.026;2023-04-15T04:29:09;698.50;;;284.07;;
29280;SDS011;25048;49.590;11.026;2023-04-15T04:31:36;681.23;;;260.87;;
29280;SDS011;25048;49.590;11.026;2023-04-15T04:34:04;687.87;;;266.17;;
29280;SDS011;25048;49.590;11.026;2023-04-15T04:36:32;687.17;;;262.47;;
29280;SDS011;25048;49.590;11.026;2023-04-15T04:39:00;688.10;;;256.20;;
29280;SDS011;25048;49.590;11.026;2023-04-15T04:41:27;691.37;;;265.53;;
29280;SDS011;25048;49.590;11.026;2023-04-15T04:43:55;686.17;;;255.30;;
29280;SDS011;25048;49.590;11.026;2023-04-15T04:46:23;693.93;;;274.93;;
29280;SDS011;25048;49.590;11.026;2023-04-15T04:48:50;695.63;;;278.93;;
29280;SDS011;25048;49.590;11.026;2023-04-15T04:51:18;688.33;;;268.50;;
29280;SDS011;25048;49.590;11.026;2023-04-15T04:53:45;694.30;;;270.30;;
29280;SDS011;25048;49.590;11.026;2023-04-15T04:56:13;699.70;;;279.07;;
29280;SDS011;25048;49.590;11.026;2023-04-15T04:58:40;688.23;;;275.07;;
29280;SDS011;25048;49.590;11.026;2023-04-15T05:01:08;695.40;;;273.77;;
29280;SDS011;25048;49.590;11.026;2023-04-15T05:03:36;695.33;;;269.77;;
29280;SDS011;25048;49.590;11.026;2023-04-15T05:06:03;699.33;;;278.97;;
29280;SDS011;25048;49.590;11.026;2023-04-15T05:08:32;703.97;;;284.30;;
29280;SDS011;25048;49.590;11.026;2023-04-15T05:11:00;696.87;;;284.23;;
29280;SDS011;25048;49.590;11.026;2023-04-15T05:13:28;701.33;;;274.87;;
29280;SDS011;25048;49.590;11.026;2023-04-15T05:15:55;696.43;;;274.37;;
29280;SDS011;25048;49.590;11.026;2023-04-15T05:18:23;700.97;;;287.40;;
29280;SDS011;25048;49.590;11.026;2023-04-15T05:20:50;696.33;;;278.97;;
29280;SDS011;25048;49.590;11.026;2023-04-15T05:23:18;685.03;;;247.10;;
29280;SDS011;25048;49.590;11.026;2023-04-15T05:25:45;702.77;;;279.93;;
29280;SDS011;25048;49.590;11.026;2023-04-15T05:28:13;692.53;;;277.17;;
29280;SDS011;25048;49.590;11.026;2023-04-15T05:30:41;693.23;;;273.40;;
29280;SDS011;25048;49.590;11.026;2023-04-15T05:33:09;696.77;;;290.77;;
29280;SDS011;25048;49.590;11.026;2023-04-15T05:35:36;688.43;;;267.47;;
29280;SDS011;25048;49.590;11.026;2023-04-15T05:38:04;695.53;;;287.07;;
29280;SDS011;25048;49.590;11.026;2023-04-15T05:40:31;697.03;;;287.17;;
29280;SDS011;25048;49.590;11.026;2023-04-15T05:42:59;695.37;;;277.53;;
29280;SDS011;25048;49.590;11.026;2023-04-15T05:45:26;694.33;;;280.37;;
29280;SDS011;25048;49.590;11.026;2023-04-15T05:47:54;703.90;;;303.03;;
29280;SDS011;25048;49.590;11.026;2023-04-15T05:50:22;692.27;;;287.00;;
29280;SDS011;25048;49.590;11.026;2023-04-15T05:52:49;698.13;;;299.30;;
29280;SDS011;25048;49.590;11.026;2023-04-15T05:55:16;689.13;;;285.60;;
29280;SDS011;25048;49.590;11.026;2023-04-15T05:57:44;697.57;;;307.57;;
29280;SDS011;25048;49.590;11.026;2023-04-15T06:00:12;691.07;;;278.03;;
29280;SDS011;25048;49.590;11.026;2023-04-15T06:02:40;697.73;;;301.10;;
29280;SDS011;25048;49.590;11.026;2023-04-15T06:05:08;698.17;;;301.33;;
29280;SDS011;25048;49.590;11.026;2023-04-15T06:07:36;693.80;;;293.27;;
29280;SDS011;25048;49.590;11.026;2023-04-15T06:10:04;689.87;;;288.23;;
29280;SDS011;25048;49.590;11.026;2023-04-15T06:12:33;690.80;;;288.13;;
29280;SDS011;25048;49.590;11.026;2023-04-15T06:15:00;698.67;;;318.60;;
29280;SDS011;25048;49.590;11.026;2023-04-15T06:17:28;704.23;;;315.00;;
29280;SDS011;25048;49.590;11.026;2023-04-15T06:19:56;710.33;;;333.43;;
29280;SDS011;25048;49.590;11.026;2023-04-15T06:22:23;709.20;;;334.60;;
29280;SDS011;25048;49.590;11.026;2023-04-15T06:24:51;707.03;;;322.83;;
29280;SDS011;25048;49.590;11.026;2023-04-15T06:27:19;708.70;;;331.57;;
29280;SDS011;25048;49.590;11.026;2023-04-15T06:29:47;715.53;;;344.93;;
29280;SDS011;25048;49.590;11.026;2023-04-15T06:32:15;708.63;;;329.20;;
29280;SDS011;25048;49.590;11.026;2023-04-15T06:34:42;704.90;;;321.07;;
29280;SDS011;25048;49.590;11.026;2023-04-15T06:37:10;711.77;;;332.03;;
29280;SDS011;25048;49.590;11.026;2023-04-15T06:39:39;713.60;;;336.00;;
29280;SDS011;25048;49.590;11.026;2023-04-15T06:42:08;740.50;;;381.90;;
29280;SDS011;25048;49.590;11.026;2023-04-15T06:44:36;726.00;;;359.50;;
29280;SDS011;25048;49.590;11.026;2023-04-15T06:47:04;713.60;;;327.07;;
29280;SDS011;25048;49.590;11.026;2023-04-15T06:49:32;712.43;;;342.70;;
29280;SDS011;25048;49.590;11.026;2023-04-15T06:52:00;725.67;;;361.73;;
29280;SDS011;25048;49.590;11.026;2023-04-15T06:54:29;721.40;;;352.17;;
29280;SDS011;25048;49.590;11.026;2023-04-15T06:56:57;726.37;;;359.83;;
29280;SDS011;25048;49.590;11.026;2023-04-15T06:59:24;722.70;;;355.03;;
29280;SDS011;25048;49.590;11.026;2023-04-15T07:01:52;718.30;;;348.60;;
29280;SDS011;25048;49.590;11.026;2023-04-15T07:04:19;732.23;;;373.83;;
29280;SDS011;25048;49.590;11.026;2023-04-15T07:06:47;733.13;;;376.70;;
29280;SDS011;25048;49.590;11.026;2023-04-15T07:09:14;725.30;;;357.67;;
29280;SDS011;25048;49.590;11.026;2023-04-15T07:11:42;731.43;;;378.63;;
29280;SDS011;25048;49.590;11.026;2023-04-15T07:14:09;726.23;;;363.70;;
29280;SDS011;25048;49.590;11.026;2023-04-15T07:16:37;719.13;;;350.67;;
29280;SDS011;25048;49.590;11.026;2023-04-15T07:19:04;721.10;;;354.87;;
29280;SDS011;25048;49.590;11.026;2023-04-15T07:21:32;713.33;;;340.63;;
29280;SDS011;25048;49.590;11.026;2023-04-15T07:24:00;711.17;;;328.57;;
29280;SDS011;25048;49.590;11.026;2023-04-15T07:26:27;725.07;;;361.33;;
29280;SDS011;25048;49.590;11.026;2023-04-15T07:28:55;725.67;;;363.67;;
29280;SDS011;25048;49.590;11.026;2023-04-15T07:31:22;716.97;;;346.47;;
29280;SDS011;25048;49.590;11.026;2023-04-15T07:33:50;717.07;;;345.37;;
29280;SDS011;25048;49.590;11.026;2023-04-15T07:36:18;722.33;;;353.30;;
29280;SDS011;25048;49.590;11.026;2023-04-15T07:38:45;716.67;;;350.40;;
29280;SDS011;25048;49.590;11.026;2023-04-15T07:41:13;721.07;;;348.17;;
29280;SDS011;25048;49.590;11.026;2023-04-15T07:43:41;705.57;;;324.13;;
29280;SDS011;25048;49.590;11.026;2023-04-15T07:46:09;712.60;;;329.87;;
29280;SDS011;25048;49.590;11.026;2023-04-15T07:48:36;707.63;;;324.40;;
29280;SDS011;25048;49.590;11.026;2023-04-15T07:51:04;702.67;;;315.30;;
29280;SDS011;25048;49.590;11.026;2023-04-15T07:53:33;711.07;;;330.37;;
29280;SDS011;25048;49.590;11.026;2023-04-15T07:56:01;715.10;;;345.57;;
29280;SDS011;25048;49.590;11.026;2023-04-15T07:58:28;710.00;;;341.53;;
29280;SDS011;25048;49.590;11.026;2023-04-15T08:00:56;714.07;;;347.63;;
29280;SDS011;25048;49.590;11.026;2023-04-15T08:03:23;702.60;;;329.53;;
29280;SDS011;25048;49.590;11.026;2023-04-15T08:05:52;687.67;;;310.70;;
29280;SDS011;25048;49.590;11.026;2023-04-15T08:08:19;688.83;;;309.60;;
29280;SDS011;25048;49.590;11.026;2023-04-15T08:10:47;701.13;;;339.63;;
29280;SDS011;25048;49.590;11.026;2023-04-15T08:13:15;718.63;;;363.70;;
29280;SDS011;25048;49.590;11.026;2023-04-15T08:15:43;721.70;;;367.47;;
29280;SDS011;25048;49.590;11.026;2023-04-15T08:18:11;713.37;;;348.47;;
29280;SDS011;25048;49.590;11.026;2023-04-15T08:20:38;716.87;;;347.97;;
29280;SDS011;25048;49.590;11.026;2023-04-15T08:23:06;707.97;;;335.10;;
29280;SDS011;25048;49.590;11.026;2023-04-15T08:25:34;712.70;;;340.00;;
29280;SDS011;25048;49.590;11.026;2023-04-15T08:28:03;704.93;;;317.67;;
29280;SDS011;25048;49.590;11.026;2023-04-15T08:30:32;704.70;;;318.60;;
29280;SDS011;25048;49.590;11.026;2023-04-15T08:32:59;716.70;;;340.33;;
29280;SDS011;25048;49.590;11.026;2023-04-15T08:35:27;716.20;;;334.97;;
29280;SDS011;25048;49.590;11.026;2023-04-15T08:37:54;700.30;;;309.70;;
29280;SDS011;25048;49.590;11.026;2023-04-15T08:40:22;714.90;;;337.93;;
29280;SDS011;25048;49.590;11.026;2023-04-15T08:42:52;712.63;;;329.00;;
29280;SDS011;25048;49.590;11.026;2023-04-15T08:45:22;703.97;;;310.70;;
29280;SDS011;25048;49.590;11.026;2023-04-15T08:47:50;701.60;;;305.93;;
29280;SDS011;25048;49.590;11.026;2023-04-15T08:50:21;712.83;;;337.97;;
29280;SDS011;25048;49.590;11.026;2023-04-15T08:52:53;721.70;;;345.60;;
29280;SDS011;25048;49.590;11.026;2023-04-15T08:55:20;725.97;;;358.83;;
29280;SDS011;25048;49.590;11.026;2023-04-15T08:57:49;729.60;;;353.77;;
29280;SDS011;25048;49.590;11.026;2023-04-15T09:00:17;725.83;;;345.63;;
29280;SDS011;25048;49.590;11.026;2023-04-15T09:02:45;722.47;;;342.10;;
29280;SDS011;25048;49.590;11.026;2023-04-15T09:05:12;720.33;;;343.47;;
29280;SDS011;25048;49.590;11.026;2023-04-15T09:07:41;716.27;;;336.90;;
29280;SDS011;25048;49.590;11.026;2023-04-15T09:10:08;722.90;;;339.87;;
29280;SDS011;25048;49.590;11.026;2023-04-15T09:12:36;710.13;;;323.60;;
29280;SDS011;25048;49.590;11.026;2023-04-15T09:15:04;708.77;;;319.70;;
29280;SDS011;25048;49.590;11.026;2023-04-15T09:17:33;710.47;;;328.63;;
29280;SDS011;25048;49.590;11.026;2023-04-15T09:20:09;708.40;;;323.33;;
29280;SDS011;25048;49.590;11.026;2023-04-15T09:22:39;717.17;;;329.50;;
29280;SDS011;25048;49.590;11.026;2023-04-15T09:27:56;717.53;;;352.60;;
29280;SDS011;25048;49.590;11.026;2023-04-15T09:30:26;719.73;;;353.83;;
29280;SDS011;25048;49.590;11.026;2023-04-15T09:32:55;718.97;;;346.23;;
29280;SDS011;25048;49.590;11.026;2023-04-15T09:35:24;702.70;;;316.87;;
29280;SDS011;25048;49.590;11.026;2023-04-15T09:37:53;708.10;;;313.33;;
29280;SDS011;25048;49.590;11.026;2023-04-15T09:40:33;714.00;;;334.03;;
29280;SDS011;25048;49.590;11.026;2023-04-15T09:43:03;719.33;;;345.60;;
29280;SDS011;25048;49.590;11.026;2023-04-15T09:45:32;716.60;;;334.20;;
29280;SDS011;25048;49.590;11.026;2023-04-15T09:48:17;724.30;;;359.13;;
29280;SDS011;25048;49.590;11.026;2023-04-15T09:50:49;719.07;;;342.67;;
29280;SDS011;25048;49.590;11.026;2023-04-15T09:53:19;706.37;;;325.83;;
29280;SDS011;25048;49.590;11.026;2023-04-15T09:55:49;719.83;;;345.80;;
29280;SDS011;25048;49.590;11.026;2023-04-15T09:58:18;719.90;;;340.40;;
29280;SDS011;25048;49.590;11.026;2023-04-15T10:00:47;714.83;;;337.03;;
29280;SDS011;25048;49.590;11.026;2023-04-15T10:03:19;701.73;;;310.10;;
29280;SDS011;25048;49.590;11.026;2023-04-15T10:05:48;687.70;;;308.60;;
29280;SDS011;25048;49.590;11.026;2023-04-15T10:08:18;701.00;;;320.43;;
29280;SDS011;25048;49.590;11.026;2023-04-15T10:10:47;702.63;;;313.53;;
29280;SDS011;25048;49.590;11.026;2023-04-15T10:13:17;706.77;;;326.20;;
29280;SDS011;25048;49.590;11.026;2023-04-15T10:15:50;705.47;;;308.70;;
29280;SDS011;25048;49.590;11.026;2023-04-15T10:18:22;703.53;;;318.80;;
29280;SDS011;25048;49.590;11.026;2023-04-15T10:20:52;702.53;;;317.40;;
29280;SDS011;25048;49.590;11.026;2023-04-15T10:23:21;705.50;;;327.20;;
29280;SDS011;25048;49.590;11.026;2023-04-15T10:25:50;709.53;;;341.83;;
29280;SDS011;25048;49.590;11.026;2023-04-15T10:28:20;702.80;;;322.03;;
29280;SDS011;25048;49.590;11.026;2023-04-15T10:30:48;703.80;;;312.90;;
29280;SDS011;25048;49.590;11.026;2023-04-15T10:33:17;716.93;;;351.23;;
29280;SDS011;25048;49.590;11.026;2023-04-15T10:35:48;715.83;;;340.80;;
29280;SDS011;25048;49.590;11.026;2023-04-15T10:38:33;712.20;;;337.20;;
29280;SDS011;25048;49.590;11.026;2023-04-15T10:41:11;710.93;;;331.73;;
29280;SDS011;25048;49.590;11.026;2023-04-15T10:43:45;717.10;;;345.30;;
29280;SDS011;25048;49.590;11.026;2023-04-15T10:46:57;704.07;;;315.60;;
29280;SDS011;25048;49.590;11.026;2023-04-15T10:48:52;710.43;;;334.83;;
29280;SDS011;25048;49.590;11.026;2023-04-15T10:51:29;722.03;;;354.87;;
29280;SDS011;25048;49.590;11.026;2023-04-15T10:53:56;711.13;;;339.67;;
29280;SDS011;25048;49.590;11.026;2023-04-15T10:56:27;729.63;;;384.60;;
29280;SDS011;25048;49.590;11.026;2023-04-15T10:58:57;723.93;;;373.40;;
29280;SDS011;25048;49.590;11.026;2023-04-15T11:07:32;745.77;;;417.90;;
29280;SDS011;25048;49.590;11.026;2023-04-15T11:12:55;737.07;;;400.87;;
29280;SDS011;25048;49.590;11.026;2023-04-15T11:15:30;743.60;;;414.00;;
29280;SDS011;25048;49.590;11.026;2023-04-15T11:18:22;748.30;;;426.53;;
29280;SDS011;25048;49.590;11.026;2023-04-15T11:20:53;710.50;;;343.73;;
29280;SDS011;25048;49.590;11.026;2023-04-15T11:23:32;688.43;;;309.17;;
29280;SDS011;25048;49.590;11.026;2023-04-15T11:26:02;700.43;;;363.07;;
29280;SDS011;25048;49.590;11.026;2023-04-15T11:28:33;701.63;;;361.87;;
29280;SDS011;25048;49.590;11.026;2023-04-15T11:31:11;737.83;;;411.63;;
29280;SDS011;25048;49.590;11.026;2023-04-15T11:33:46;759.10;;;462.20;;
29280;SDS011;25048;49.590;11.026;2023-04-15T11:36:23;817.27;;;578.53;;
29280;SDS011;25048;49.590;11.026;2023-04-15T11:38:53;788.20;;;527.37;;
29280;SDS011;25048;49.590;11.026;2023-04-15T11:41:23;811.47;;;580.80;;
29280;SDS011;25048;49.590;11.026;2023-04-15T11:43:50;808.43;;;571.77;;
29280;SDS011;25048;49.590;11.026;2023-04-15T11:46:19;807.73;;;561.33;;
29280;SDS011;25048;49.590;11.026;2023-04-15T11:48:50;806.27;;;565.47;;
29280;SDS011;25048;49.590;11.026;2023-04-15T11:51:17;805.07;;;560.60;;
29280;SDS011;25048;49.590;11.026;2023-04-15T11:53:47;797.53;;;546.30;;
29280;SDS011;25048;49.590;11.026;2023-04-15T11:56:17;787.50;;;515.97;;
29280;SDS011;25048;49.590;11.026;2023-04-15T11:58:53;794.47;;;526.53;;
29280;SDS011;25048;49.590;11.026;2023-04-15T12:01:33;795.87;;;539.50;;
29280;SDS011;25048;49.590;11.026;2023-04-15T12:04:10;789.00;;;526.10;;
29280;SDS011;25048;49.590;11.026;2023-04-15T12:06:46;791.27;;;530.53;;
29280;SDS011;25048;49.590;11.026;2023-04-15T12:09:17;797.20;;;540.50;;
29280;SDS011;25048;49.590;11.026;2023-04-15T12:11:45;799.60;;;544.53;;
29280;SDS011;25048;49.590;11.026;2023-04-15T12:14:18;791.73;;;527.80;;
29280;SDS011;25048;49.590;11.026;2023-04-15T12:16:49;800.67;;;551.90;;
29280;SDS011;25048;49.590;11.026;2023-04-15T12:19:28;786.00;;;524.93;;
29280;SDS011;25048;49.590;11.026;2023-04-15T12:22:04;783.97;;;520.67;;
29280;SDS011;25048;49.590;11.026;2023-04-15T12:24:36;787.37;;;523.00;;
29280;SDS011;25048;49.590;11.026;2023-04-15T12:27:04;779.53;;;497.70;;
29280;SDS011;25048;49.590;11.026;2023-04-15T12:29:34;765.60;;;482.73;;
29280;SDS011;25048;49.590;11.026;2023-04-15T12:32:07;751.00;;;448.47;;
29280;SDS011;25048;49.590;11.026;2023-04-15T12:34:37;739.40;;;435.17;;
29280;SDS011;25048;49.590;11.026;2023-04-15T12:37:06;753.60;;;465.53;;
29280;SDS011;25048;49.590;11.026;2023-04-15T12:39:37;752.87;;;477.83;;
29280;SDS011;25048;49.590;11.026;2023-04-15T12:42:06;804.30;;;557.70;;
29280;SDS011;25048;49.590;11.026;2023-04-15T12:44:34;796.73;;;555.63;;
29280;SDS011;25048;49.590;11.026;2023-04-15T12:47:03;755.53;;;469.23;;
29280;SDS011;25048;49.590;11.026;2023-04-15T12:49:30;783.33;;;525.07;;
29280;SDS011;25048;49.590;11.026;2023-04-15T12:51:59;767.30;;;490.87;;
29280;SDS011;25048;49.590;11.026;2023-04-15T12:54:27;770.93;;;497.83;;
29280;SDS011;25048;49.590;11.026;2023-04-15T12:56:56;751.13;;;462.33;;
29280;SDS011;25048;49.590;11.026;2023-04-15T12:59:25;761.73;;;484.47;;
29280;SDS011;25048;49.590;11.026;2023-04-15T13:01:53;747.87;;;458.40;;
29280;SDS011;25048;49.590;11.026;2023-04-15T13:04:21;753.33;;;479.80;;
29280;SDS011;25048;49.590;11.026;2023-04-15T13:06:49;750.63;;;472.03;;
29280;SDS011;25048;49.590;11.026;2023-04-15T13:09:16;779.70;;;528.43;;
29280;SDS011;25048;49.590;11.026;2023-04-15T13:11:44;781.47;;;532.30;;
29280;SDS011;25048;49.590;11.026;2023-04-15T13:14:11;778.73;;;532.53;;
29280;SDS011;25048;49.590;11.026;2023-04-15T13:16:39;780.13;;;537.60;;
29280;SDS011;25048;49.590;11.026;2023-04-15T13:19:07;783.23;;;546.70;;
29280;SDS011;25048;49.590;11.026;2023-04-15T13:21:34;787.00;;;550.97;;
29280;SDS011;25048;49.590;11.026;2023-04-15T13:24:02;779.70;;;534.70;;
29280;SDS011;25048;49.590;11.026;2023-04-15T13:26:31;780.40;;;531.07;;
29280;SDS011;25048;49.590;11.026;2023-04-15T13:28:59;766.17;;;508.07;;
29280;SDS011;25048;49.590;11.026;2023-04-15T13:31:27;748.67;;;460.83;;
29280;SDS011;25048;49.590;11.026;2023-04-15T13:33:55;741.60;;;467.47;;
29280;SDS011;25048;49.590;11.026;2023-04-15T13:36:23;749.40;;;480.00;;
29280;SDS011;25048;49.590;11.026;2023-04-15T13:38:52;740.00;;;454.17;;
29280;SDS011;25048;49.590;11.026;2023-04-15T13:41:20;733.53;;;438.73;;
29280;SDS011;25048;49.590;11.026;2023-04-15T13:43:47;744.20;;;452.93;;
29280;SDS011;25048;49.590;11.026;2023-04-15T13:46:15;791.30;;;540.47;;
29280;SDS011;25048;49.590;11.026;2023-04-15T13:48:43;783.47;;;530.90;;
29280;SDS011;25048;49.590;11.026;2023-04-15T13:51:10;750.50;;;460.30;;
29280;SDS011;25048;49.590;11.026;2023-04-15T13:53:38;768.93;;;502.73;;
29280;SDS011;25048;49.590;11.026;2023-04-15T13:56:06;766.90;;;481.67;;
29280;SDS011;25048;49.590;11.026;2023-04-15T13:58:34;735.43;;;433.67;;
29280;SDS011;25048;49.590;11.026;2023-04-15T14:01:02;730.03;;;418.47;;
29280;SDS011;25048;49.590;11.026;2023-04-15T14:03:31;720.93;;;390.53;;